sensor_id;sensor_type;location;lat;lon;timestamp;P1;durP1;ratioP1;P2;durP2;ratioP2
43519;SDS011;46848;51.980;5.918;2023-06-26T00:01:03;6.53;;;4.85;;
43519;SDS011;46848;51.980;5.918;2023-06-26T00:03:30;6.05;;;4.88;;
43519;SDS011;46848;51.980;5.918;2023-06-26T00:05:57;6.32;;;4.93;;
43519;SDS011;46848;51.980;5.918;2023-06-26T00:08:25;6.15;;;4.78;;
43519;SDS011;46848;51.980;5.918;2023-06-26T00:10:51;6.45;;;4.90;;
43519;SDS011;46848;51.980;5.918;2023-06-26T00:13:18;7.28;;;5.18;;
43519;SDS011;46848;51.980;5.918;2023-06-26T00:15:44;7.45;;;5.53;;
43519;SDS011;46848;51.980;5.918;2023-06-26T00:18:09;8.43;;;5.47;;
43519;SDS011;46848;51.980;5.918;2023-06-26T00:20:35;7.00;;;5.38;;
43519;SDS011;46848;51.980;5.918;2023-06-26T00:23:01;6.38;;;5.10;;
43519;SDS011;46848;51.980;5.918;2023-06-26T00:25:29;7.03;;;5.40;;
43519;SDS011;46848;51.980;5.918;2023-06-26T00:27:54;5.55;;;4.72;;
43519;SDS011;46848;51.980;5.918;2023-06-26T00:30:20;6.75;;;5.38;;
43519;SDS011;46848;51.980;5.918;2023-06-26T00:32:45;6.22;;;5.60;;
43519;SDS011;46848;51.980;5.918;2023-06-26T00:35:11;8.07;;;5.43;;
43519;SDS011;46848;51.980;5.918;2023-06-26T00:37:36;5.20;;;4.68;;
43519;SDS011;46848;51.980;5.918;2023-06-26T00:40:02;7.05;;;4.97;;
43519;SDS011;46848;51.980;5.918;2023-06-26T00:42:30;6.45;;;4.90;;
43519;SDS011;46848;51.980;5.918;2023-06-26T00:44:55;7.78;;;5.32;;
43519;SDS011;46848;51.980;5.918;2023-06-26T00:47:21;5.95;;;5.10;;
43519;SDS011;46848;51.980;5.918;2023-06-26T00:49:47;7.43;;;5.00;;
43519;SDS011;46848;51.980;5.918;2023-06-26T00:52:12;7.72;;;5.53;;
43519;SDS011;46848;51.980;5.918;2023-06-26T00:54:38;7.30;;;5.32;;
43519;SDS011;46848;51.980;5.918;2023-06-26T00:57:04;6.50;;;5.40;;
43519;SDS011;46848;51.980;5.918;2023-06-26T00:59:30;6.38;;;4.97;;
43519;SDS011;46848;51.980;5.918;2023-06-26T01:01:55;6.43;;;5.43;;
43519;SDS011;46848;51.980;5.918;2023-06-26T01:04:21;6.10;;;5.18;;
43519;SDS011;46848;51.980;5.918;2023-06-26T01:06:52;7.18;;;5.68;;
43519;SDS011;46848;51.980;5.918;2023-06-26T01:09:19;7.15;;;5.88;;
43519;SDS011;46848;51.980;5.918;2023-06-26T01:11:46;7.22;;;4.80;;
43519;SDS011;46848;51.980;5.918;2023-06-26T01:14:12;6.50;;;5.63;;
43519;SDS011;46848;51.980;5.918;2023-06-26T01:16:38;6.45;;;5.18;;
43519;SDS011;46848;51.980;5.918;2023-06-26T01:19:13;7.10;;;5.05;;
43519;SDS011;46848;51.980;5.918;2023-06-26T01:21:49;7.25;;;5.45;;
43519;SDS011;46848;51.980;5.918;2023-06-26T01:24:22;7.90;;;5.82;;
43519;SDS011;46848;51.980;5.918;2023-06-26T01:26:52;7.38;;;5.47;;
43519;SDS011;46848;51.980;5.918;2023-06-26T01:29:18;7.28;;;5.53;;
43519;SDS011;46848;51.980;5.918;2023-06-26T01:31:45;6.68;;;5.22;;
43519;SDS011;46848;51.980;5.918;2023-06-26T01:34:15;8.77;;;5.50;;
43519;SDS011;46848;51.980;5.918;2023-06-26T01:36:42;7.15;;;5.38;;
43519;SDS011;46848;51.980;5.918;2023-06-26T01:39:07;8.07;;;5.93;;
43519;SDS011;46848;51.980;5.918;2023-06-26T01:41:33;7.13;;;5.28;;
43519;SDS011;46848;51.980;5.918;2023-06-26T01:46:42;6.20;;;4.82;;
43519;SDS011;46848;51.980;5.918;2023-06-26T01:49:21;6.95;;;5.45;;
43519;SDS011;46848;51.980;5.918;2023-06-26T01:54:34;8.88;;;5.60;;
43519;SDS011;46848;51.980;5.918;2023-06-26T01:57:04;8.57;;;6.13;;
43519;SDS011;46848;51.980;5.918;2023-06-26T01:59:31;10.65;;;6.13;;
43519;SDS011;46848;51.980;5.918;2023-06-26T02:02:00;9.15;;;6.13;;
43519;SDS011;46848;51.980;5.918;2023-06-26T02:04:26;6.60;;;5.65;;
43519;SDS011;46848;51.980;5.918;2023-06-26T02:06:51;7.47;;;5.60;;
43519;SDS011;46848;51.980;5.918;2023-06-26T02:09:17;7.90;;;5.93;;
43519;SDS011;46848;51.980;5.918;2023-06-26T02:11:42;7.68;;;6.03;;
43519;SDS011;46848;51.980;5.918;2023-06-26T02:14:08;6.50;;;5.53;;
43519;SDS011;46848;51.980;5.918;2023-06-26T02:16:35;7.75;;;5.68;;
43519;SDS011;46848;51.980;5.918;2023-06-26T02:19:00;7.88;;;5.80;;
43519;SDS011;46848;51.980;5.918;2023-06-26T02:21:26;6.38;;;5.20;;
43519;SDS011;46848;51.980;5.918;2023-06-26T02:23:51;5.25;;;4.68;;
43519;SDS011;46848;51.980;5.918;2023-06-26T02:26:17;6.68;;;4.95;;
43519;SDS011;46848;51.980;5.918;2023-06-26T02:28:43;7.55;;;4.30;;
43519;SDS011;46848;51.980;5.918;2023-06-26T02:31:08;7.75;;;4.25;;
43519;SDS011;46848;51.980;5.918;2023-06-26T02:33:34;6.35;;;3.95;;
43519;SDS011;46848;51.980;5.918;2023-06-26T02:36:00;7.50;;;4.30;;
43519;SDS011;46848;51.980;5.918;2023-06-26T02:38:26;6.18;;;4.20;;
43519;SDS011;46848;51.980;5.918;2023-06-26T02:40:51;4.70;;;3.55;;
43519;SDS011;46848;51.980;5.918;2023-06-26T02:43:17;5.32;;;3.67;;
43519;SDS011;46848;51.980;5.918;2023-06-26T02:45:42;6.28;;;3.40;;
43519;SDS011;46848;51.980;5.918;2023-06-26T02:48:08;8.27;;;3.20;;
43519;SDS011;46848;51.980;5.918;2023-06-26T02:50:33;7.28;;;3.33;;
43519;SDS011;46848;51.980;5.918;2023-06-26T02:53:01;7.57;;;3.40;;
43519;SDS011;46848;51.980;5.918;2023-06-26T02:55:27;6.07;;;3.53;;
43519;SDS011;46848;51.980;5.918;2023-06-26T02:57:52;6.80;;;3.35;;
43519;SDS011;46848;51.980;5.918;2023-06-26T03:00:18;6.82;;;3.47;;
43519;SDS011;46848;51.980;5.918;2023-06-26T03:02:44;6.97;;;3.28;;
43519;SDS011;46848;51.980;5.918;2023-06-26T03:05:09;7.47;;;3.33;;
43519;SDS011;46848;51.980;5.918;2023-06-26T03:07:35;6.07;;;2.85;;
43519;SDS011;46848;51.980;5.918;2023-06-26T03:10:00;6.00;;;2.88;;
43519;SDS011;46848;51.980;5.918;2023-06-26T03:12:26;8.20;;;2.95;;
43519;SDS011;46848;51.980;5.918;2023-06-26T03:14:51;7.47;;;3.35;;
43519;SDS011;46848;51.980;5.918;2023-06-26T03:17:17;6.63;;;3.33;;
43519;SDS011;46848;51.980;5.918;2023-06-26T03:19:43;7.75;;;3.13;;
43519;SDS011;46848;51.980;5.918;2023-06-26T03:22:09;6.57;;;2.95;;
43519;SDS011;46848;51.980;5.918;2023-06-26T03:24:35;8.90;;;3.65;;
43519;SDS011;46848;51.980;5.918;2023-06-26T03:27:00;9.52;;;3.38;;
43519;SDS011;46848;51.980;5.918;2023-06-26T03:29:26;7.38;;;2.75;;
43519;SDS011;46848;51.980;5.918;2023-06-26T03:31:52;7.85;;;3.55;;
43519;SDS011;46848;51.980;5.918;2023-06-26T03:34:17;6.85;;;3.25;;
43519;SDS011;46848;51.980;5.918;2023-06-26T03:36:43;7.47;;;2.85;;
43519;SDS011;46848;51.980;5.918;2023-06-26T03:39:08;8.15;;;3.65;;
43519;SDS011;46848;51.980;5.918;2023-06-26T03:41:34;9.40;;;3.50;;
43519;SDS011;46848;51.980;5.918;2023-06-26T03:43:59;8.15;;;2.75;;
43519;SDS011;46848;51.980;5.918;2023-06-26T03:46:26;9.93;;;3.47;;
43519;SDS011;46848;51.980;5.918;2023-06-26T03:48:51;8.18;;;3.22;;
43519;SDS011;46848;51.980;5.918;2023-06-26T03:51:17;8.20;;;3.13;;
43519;SDS011;46848;51.980;5.918;2023-06-26T03:53:42;7.38;;;3.63;;
43519;SDS011;46848;51.980;5.918;2023-06-26T03:56:08;8.98;;;3.33;;
43519;SDS011;46848;51.980;5.918;2023-06-26T03:58:34;6.88;;;3.30;;
43519;SDS011;46848;51.980;5.918;2023-06-26T04:00:59;7.28;;;2.97;;
43519;SDS011;46848;51.980;5.918;2023-06-26T04:03:25;7.50;;;3.25;;
43519;SDS011;46848;51.980;5.918;2023-06-26T04:05:51;6.32;;;3.60;;
43519;SDS011;46848;51.980;5.918;2023-06-26T04:08:16;12.40;;;3.75;;
43519;SDS011;46848;51.980;5.918;2023-06-26T04:10:42;10.77;;;4.00;;
43519;SDS011;46848;51.980;5.918;2023-06-26T04:13:10;10.45;;;3.45;;
43519;SDS011;46848;51.980;5.918;2023-06-26T04:15:36;8.25;;;3.10;;
43519;SDS011;46848;51.980;5.918;2023-06-26T04:18:01;7.60;;;3.30;;
43519;SDS011;46848;51.980;5.918;2023-06-26T04:20:28;10.98;;;3.35;;
43519;SDS011;46848;51.980;5.918;2023-06-26T04:22:53;7.55;;;3.13;;
43519;SDS011;46848;51.980;5.918;2023-06-26T04:25:19;7.38;;;3.40;;
43519;SDS011;46848;51.980;5.918;2023-06-26T04:27:44;6.47;;;3.30;;
43519;SDS011;46848;51.980;5.918;2023-06-26T04:30:10;9.70;;;3.75;;
43519;SDS011;46848;51.980;5.918;2023-06-26T04:32:37;7.93;;;3.25;;
43519;SDS011;46848;51.980;5.918;2023-06-26T04:35:03;8.68;;;3.00;;
43519;SDS011;46848;51.980;5.918;2023-06-26T04:37:28;9.10;;;3.70;;
43519;SDS011;46848;51.980;5.918;2023-06-26T04:39:54;8.13;;;3.53;;
43519;SDS011;46848;51.980;5.918;2023-06-26T04:42:19;9.05;;;3.55;;
43519;SDS011;46848;51.980;5.918;2023-06-26T04:44:46;10.95;;;3.80;;
43519;SDS011;46848;51.980;5.918;2023-06-26T04:47:12;12.30;;;4.35;;
43519;SDS011;46848;51.980;5.918;2023-06-26T04:49:40;6.85;;;3.35;;
43519;SDS011;46848;51.980;5.918;2023-06-26T04:52:08;10.20;;;3.53;;
43519;SDS011;46848;51.980;5.918;2023-06-26T04:54:33;10.25;;;3.25;;
43519;SDS011;46848;51.980;5.918;2023-06-26T04:56:59;10.25;;;4.55;;
43519;SDS011;46848;51.980;5.918;2023-06-26T04:59:25;10.05;;;4.22;;
43519;SDS011;46848;51.980;5.918;2023-06-26T05:01:50;10.18;;;3.80;;
43519;SDS011;46848;51.980;5.918;2023-06-26T05:04:16;8.48;;;3.60;;
43519;SDS011;46848;51.980;5.918;2023-06-26T05:06:42;9.27;;;3.85;;
43519;SDS011;46848;51.980;5.918;2023-06-26T05:09:08;11.57;;;3.42;;
43519;SDS011;46848;51.980;5.918;2023-06-26T05:11:35;9.55;;;3.33;;
43519;SDS011;46848;51.980;5.918;2023-06-26T05:14:00;11.05;;;4.15;;
43519;SDS011;46848;51.980;5.918;2023-06-26T05:16:26;8.52;;;3.88;;
43519;SDS011;46848;51.980;5.918;2023-06-26T05:18:52;12.70;;;4.22;;
43519;SDS011;46848;51.980;5.918;2023-06-26T05:21:19;8.65;;;3.60;;
43519;SDS011;46848;51.980;5.918;2023-06-26T05:23:45;11.65;;;3.47;;
43519;SDS011;46848;51.980;5.918;2023-06-26T05:26:12;8.02;;;3.65;;
43519;SDS011;46848;51.980;5.918;2023-06-26T05:28:38;10.85;;;3.97;;
43519;SDS011;46848;51.980;5.918;2023-06-26T05:31:04;11.70;;;4.28;;
43519;SDS011;46848;51.980;5.918;2023-06-26T05:33:30;9.18;;;4.00;;
43519;SDS011;46848;51.980;5.918;2023-06-26T05:35:59;10.73;;;3.40;;
43519;SDS011;46848;51.980;5.918;2023-06-26T05:38:27;13.40;;;4.25;;
43519;SDS011;46848;51.980;5.918;2023-06-26T05:40:52;12.05;;;4.00;;
43519;SDS011;46848;51.980;5.918;2023-06-26T05:43:18;9.18;;;3.90;;
43519;SDS011;46848;51.980;5.918;2023-06-26T05:45:46;12.90;;;3.63;;
43519;SDS011;46848;51.980;5.918;2023-06-26T05:48:13;10.32;;;3.88;;
43519;SDS011;46848;51.980;5.918;2023-06-26T05:50:39;10.30;;;3.65;;
43519;SDS011;46848;51.980;5.918;2023-06-26T05:53:07;6.72;;;3.05;;
43519;SDS011;46848;51.980;5.918;2023-06-26T05:55:32;7.18;;;2.72;;
43519;SDS011;46848;51.980;5.918;2023-06-26T05:57:58;8.80;;;3.53;;
43519;SDS011;46848;51.980;5.918;2023-06-26T06:00:25;7.25;;;3.10;;
43519;SDS011;46848;51.980;5.918;2023-06-26T06:02:52;10.10;;;3.47;;
43519;SDS011;46848;51.980;5.918;2023-06-26T06:05:19;10.02;;;3.50;;
43519;SDS011;46848;51.980;5.918;2023-06-26T06:07:48;7.20;;;3.15;;
43519;SDS011;46848;51.980;5.918;2023-06-26T06:10:15;9.45;;;3.28;;
43519;SDS011;46848;51.980;5.918;2023-06-26T06:12:40;9.10;;;3.17;;
43519;SDS011;46848;51.980;5.918;2023-06-26T06:15:06;7.03;;;3.08;;
43519;SDS011;46848;51.980;5.918;2023-06-26T06:17:32;6.32;;;2.70;;
43519;SDS011;46848;51.980;5.918;2023-06-26T06:19:58;5.75;;;2.67;;
43519;SDS011;46848;51.980;5.918;2023-06-26T06:22:23;7.63;;;2.72;;
43519;SDS011;46848;51.980;5.918;2023-06-26T06:24:49;7.00;;;3.10;;
43519;SDS011;46848;51.980;5.918;2023-06-26T06:27:15;9.73;;;2.90;;
43519;SDS011;46848;51.980;5.918;2023-06-26T06:29:41;6.63;;;2.55;;
43519;SDS011;46848;51.980;5.918;2023-06-26T06:32:07;6.03;;;2.60;;
43519;SDS011;46848;51.980;5.918;2023-06-26T06:34:32;6.07;;;2.15;;
43519;SDS011;46848;51.980;5.918;2023-06-26T06:36:58;6.32;;;2.72;;
43519;SDS011;46848;51.980;5.918;2023-06-26T06:39:24;4.72;;;2.67;;
43519;SDS011;46848;51.980;5.918;2023-06-26T06:41:49;5.05;;;2.30;;
43519;SDS011;46848;51.980;5.918;2023-06-26T06:44:15;5.93;;;2.00;;
43519;SDS011;46848;51.980;5.918;2023-06-26T06:46:40;5.03;;;2.05;;
43519;SDS011;46848;51.980;5.918;2023-06-26T06:49:06;5.90;;;1.85;;
43519;SDS011;46848;51.980;5.918;2023-06-26T06:51:33;6.00;;;1.98;;
43519;SDS011;46848;51.980;5.918;2023-06-26T06:53:58;6.53;;;2.30;;
43519;SDS011;46848;51.980;5.918;2023-06-26T06:56:24;3.67;;;1.88;;
43519;SDS011;46848;51.980;5.918;2023-06-26T06:58:49;4.95;;;1.98;;
43519;SDS011;46848;51.980;5.918;2023-06-26T07:01:15;3.78;;;1.80;;
43519;SDS011;46848;51.980;5.918;2023-06-26T07:03:41;4.45;;;1.80;;
43519;SDS011;46848;51.980;5.918;2023-06-26T07:06:06;4.13;;;1.67;;
43519;SDS011;46848;51.980;5.918;2023-06-26T07:08:32;3.33;;;1.75;;
43519;SDS011;46848;51.980;5.918;2023-06-26T07:10:58;3.78;;;1.80;;
43519;SDS011;46848;51.980;5.918;2023-06-26T07:13:23;3.00;;;1.80;;
43519;SDS011;46848;51.980;5.918;2023-06-26T07:15:49;4.00;;;2.10;;
43519;SDS011;46848;51.980;5.918;2023-06-26T07:18:15;6.30;;;2.10;;
43519;SDS011;46848;51.980;5.918;2023-06-26T07:20:40;5.07;;;1.95;;
43519;SDS011;46848;51.980;5.918;2023-06-26T07:23:06;4.13;;;1.85;;
43519;SDS011;46848;51.980;5.918;2023-06-26T07:25:32;3.88;;;1.92;;
43519;SDS011;46848;51.980;5.918;2023-06-26T07:27:58;5.05;;;2.20;;
43519;SDS011;46848;51.980;5.918;2023-06-26T07:30:23;4.28;;;2.25;;
43519;SDS011;46848;51.980;5.918;2023-06-26T07:32:49;5.90;;;2.15;;
43519;SDS011;46848;51.980;5.918;2023-06-26T07:35:15;3.35;;;1.70;;
43519;SDS011;46848;51.980;5.918;2023-06-26T07:37:40;5.70;;;2.05;;
43519;SDS011;46848;51.980;5.918;2023-06-26T07:40:06;6.05;;;1.95;;
43519;SDS011;46848;51.980;5.918;2023-06-26T07:42:32;4.78;;;2.13;;
43519;SDS011;46848;51.980;5.918;2023-06-26T07:44:58;4.95;;;2.00;;
43519;SDS011;46848;51.980;5.918;2023-06-26T07:47:24;4.68;;;2.13;;
43519;SDS011;46848;51.980;5.918;2023-06-26T07:49:49;2.92;;;1.67;;
43519;SDS011;46848;51.980;5.918;2023-06-26T07:52:15;3.72;;;1.70;;
43519;SDS011;46848;51.980;5.918;2023-06-26T07:54:41;3.67;;;1.90;;
43519;SDS011;46848;51.980;5.918;2023-06-26T07:57:06;4.68;;;2.10;;
43519;SDS011;46848;51.980;5.918;2023-06-26T07:59:33;5.20;;;2.08;;
43519;SDS011;46848;51.980;5.918;2023-06-26T08:01:59;3.75;;;1.92;;
43519;SDS011;46848;51.980;5.918;2023-06-26T08:04:26;6.43;;;2.13;;
43519;SDS011;46848;51.980;5.918;2023-06-26T08:06:54;5.43;;;2.13;;
43519;SDS011;46848;51.980;5.918;2023-06-26T08:09:22;3.88;;;2.03;;
43519;SDS011;46848;51.980;5.918;2023-06-26T08:11:49;3.70;;;1.73;;
43519;SDS011;46848;51.980;5.918;2023-06-26T08:14:15;3.85;;;1.83;;
43519;SDS011;46848;51.980;5.918;2023-06-26T08:16:42;5.10;;;2.30;;
43519;SDS011;46848;51.980;5.918;2023-06-26T08:19:09;4.45;;;1.88;;
43519;SDS011;46848;51.980;5.918;2023-06-26T08:21:35;3.70;;;1.95;;
43519;SDS011;46848;51.980;5.918;2023-06-26T08:24:01;5.30;;;1.75;;
43519;SDS011;46848;51.980;5.918;2023-06-26T08:26:27;3.22;;;1.92;;
43519;SDS011;46848;51.980;5.918;2023-06-26T08:28:53;4.82;;;1.98;;
43519;SDS011;46848;51.980;5.918;2023-06-26T08:31:19;3.67;;;1.80;;
43519;SDS011;46848;51.980;5.918;2023-06-26T08:33:45;4.28;;;1.83;;
43519;SDS011;46848;51.980;5.918;2023-06-26T08:36:11;4.35;;;2.28;;
43519;SDS011;46848;51.980;5.918;2023-06-26T08:38:37;3.42;;;1.98;;
43519;SDS011;46848;51.980;5.918;2023-06-26T08:41:05;5.70;;;2.05;;
43519;SDS011;46848;51.980;5.918;2023-06-26T08:43:31;4.60;;;2.15;;
43519;SDS011;46848;51.980;5.918;2023-06-26T08:45:57;4.13;;;2.20;;
43519;SDS011;46848;51.980;5.918;2023-06-26T08:48:23;8.25;;;2.28;;
43519;SDS011;46848;51.980;5.918;2023-06-26T08:50:49;6.18;;;3.13;;
43519;SDS011;46848;51.980;5.918;2023-06-26T08:55:52;7.80;;;4.15;;
43519;SDS011;46848;51.980;5.918;2023-06-26T08:58:19;6.78;;;3.30;;
43519;SDS011;46848;51.980;5.918;2023-06-26T09:00:45;5.20;;;2.72;;
43519;SDS011;46848;51.980;5.918;2023-06-26T09:03:11;6.43;;;2.42;;
43519;SDS011;46848;51.980;5.918;2023-06-26T09:05:38;5.35;;;2.03;;
43519;SDS011;46848;51.980;5.918;2023-06-26T09:08:04;4.22;;;2.42;;
43519;SDS011;46848;51.980;5.918;2023-06-26T09:10:30;3.65;;;1.80;;
43519;SDS011;46848;51.980;5.918;2023-06-26T09:12:55;4.07;;;1.70;;
43519;SDS011;46848;51.980;5.918;2023-06-26T09:15:26;4.63;;;1.88;;
43519;SDS011;46848;51.980;5.918;2023-06-26T09:18:01;5.57;;;1.95;;
43519;SDS011;46848;51.980;5.918;2023-06-26T09:20:30;6.15;;;2.63;;
43519;SDS011;46848;51.980;5.918;2023-06-26T09:22:58;7.40;;;3.13;;
43519;SDS011;46848;51.980;5.918;2023-06-26T09:25:24;7.88;;;3.60;;
43519;SDS011;46848;51.980;5.918;2023-06-26T09:27:50;6.97;;;2.25;;
43519;SDS011;46848;51.980;5.918;2023-06-26T09:30:18;4.20;;;1.88;;
43519;SDS011;46848;51.980;5.918;2023-06-26T09:32:44;2.80;;;1.30;;
43519;SDS011;46848;51.980;5.918;2023-06-26T09:35:11;4.53;;;1.73;;
43519;SDS011;46848;51.980;5.918;2023-06-26T09:37:37;3.25;;;1.70;;
43519;SDS011;46848;51.980;5.918;2023-06-26T09:40:03;3.80;;;1.20;;
43519;SDS011;46848;51.980;5.918;2023-06-26T09:42:29;3.60;;;1.60;;
43519;SDS011;46848;51.980;5.918;2023-06-26T09:44:55;2.15;;;1.40;;
43519;SDS011;46848;51.980;5.918;2023-06-26T09:47:21;4.78;;;1.70;;
43519;SDS011;46848;51.980;5.918;2023-06-26T09:49:47;9.00;;;1.50;;
43519;SDS011;46848;51.980;5.918;2023-06-26T09:52:17;5.75;;;1.38;;
43519;SDS011;46848;51.980;5.918;2023-06-26T09:54:44;2.72;;;1.02;;
43519;SDS011;46848;51.980;5.918;2023-06-26T09:57:15;4.57;;;1.27;;
43519;SDS011;46848;51.980;5.918;2023-06-26T09:59:45;5.43;;;1.10;;
43519;SDS011;46848;51.980;5.918;2023-06-26T10:02:27;5.38;;;1.17;;
43519;SDS011;46848;51.980;5.918;2023-06-26T10:04:53;2.63;;;1.02;;
43519;SDS011;46848;51.980;5.918;2023-06-26T10:07:19;3.85;;;0.98;;
43519;SDS011;46848;51.980;5.918;2023-06-26T10:09:47;5.07;;;1.08;;
43519;SDS011;46848;51.980;5.918;2023-06-26T10:12:23;5.40;;;1.52;;
43519;SDS011;46848;51.980;5.918;2023-06-26T10:14:56;2.83;;;1.05;;
43519;SDS011;46848;51.980;5.918;2023-06-26T10:17:22;3.13;;;1.20;;
43519;SDS011;46848;51.980;5.918;2023-06-26T10:19:52;2.72;;;1.15;;
43519;SDS011;46848;51.980;5.918;2023-06-26T10:22:21;5.45;;;1.55;;
43519;SDS011;46848;51.980;5.918;2023-06-26T10:24:52;4.93;;;1.10;;
43519;SDS011;46848;51.980;5.918;2023-06-26T10:27:23;4.35;;;1.70;;
43519;SDS011;46848;51.980;5.918;2023-06-26T10:29:54;3.88;;;1.33;;
43519;SDS011;46848;51.980;5.918;2023-06-26T10:32:23;3.28;;;1.00;;
43519;SDS011;46848;51.980;5.918;2023-06-26T10:34:51;3.97;;;1.08;;
43519;SDS011;46848;51.980;5.918;2023-06-26T10:37:17;4.80;;;0.90;;
43519;SDS011;46848;51.980;5.918;2023-06-26T10:39:50;5.25;;;1.00;;
43519;SDS011;46848;51.980;5.918;2023-06-26T10:42:20;4.97;;;1.52;;
43519;SDS011;46848;51.980;5.918;2023-06-26T10:45:08;3.70;;;1.10;;
43519;SDS011;46848;51.980;5.918;2023-06-26T10:47:42;3.78;;;1.20;;
43519;SDS011;46848;51.980;5.918;2023-06-26T10:50:17;5.68;;;1.05;;
43519;SDS011;46848;51.980;5.918;2023-06-26T10:52:44;1.92;;;0.88;;
43519;SDS011;46848;51.980;5.918;2023-06-26T10:55:09;4.43;;;1.02;;
43519;SDS011;46848;51.980;5.918;2023-06-26T10:57:36;1.80;;;1.13;;
43519;SDS011;46848;51.980;5.918;2023-06-26T11:00:08;2.58;;;1.00;;
43519;SDS011;46848;51.980;5.918;2023-06-26T11:02:51;2.25;;;0.93;;
43519;SDS011;46848;51.980;5.918;2023-06-26T11:08:02;2.63;;;0.82;;
43519;SDS011;46848;51.980;5.918;2023-06-26T11:10:29;3.45;;;1.10;;
43519;SDS011;46848;51.980;5.918;2023-06-26T11:12:54;1.70;;;0.70;;
43519;SDS011;46848;51.980;5.918;2023-06-26T11:15:24;4.80;;;0.90;;
43519;SDS011;46848;51.980;5.918;2023-06-26T11:17:51;1.33;;;0.65;;
43519;SDS011;46848;51.980;5.918;2023-06-26T11:20:18;2.53;;;0.95;;
43519;SDS011;46848;51.980;5.918;2023-06-26T11:22:43;1.83;;;0.70;;
43519;SDS011;46848;51.980;5.918;2023-06-26T11:25:10;2.28;;;0.80;;
43519;SDS011;46848;51.980;5.918;2023-06-26T11:27:42;2.78;;;0.80;;
43519;SDS011;46848;51.980;5.918;2023-06-26T11:30:09;1.95;;;0.95;;
43519;SDS011;46848;51.980;5.918;2023-06-26T11:32:37;2.67;;;0.90;;
43519;SDS011;46848;51.980;5.918;2023-06-26T11:35:03;3.70;;;1.10;;
43519;SDS011;46848;51.980;5.918;2023-06-26T11:37:30;1.90;;;0.88;;
43519;SDS011;46848;51.980;5.918;2023-06-26T11:39:56;3.38;;;1.00;;
43519;SDS011;46848;51.980;5.918;2023-06-26T11:42:23;3.78;;;0.90;;
43519;SDS011;46848;51.980;5.918;2023-06-26T11:44:52;2.97;;;1.45;;
43519;SDS011;46848;51.980;5.918;2023-06-26T11:47:20;1.55;;;0.80;;
43519;SDS011;46848;51.980;5.918;2023-06-26T11:49:46;3.88;;;0.88;;
43519;SDS011;46848;51.980;5.918;2023-06-26T11:52:13;2.78;;;1.00;;
43519;SDS011;46848;51.980;5.918;2023-06-26T11:54:40;4.00;;;1.13;;
43519;SDS011;46848;51.980;5.918;2023-06-26T11:57:06;2.53;;;1.00;;
43519;SDS011;46848;51.980;5.918;2023-06-26T11:59:41;4.28;;;1.42;;
43519;SDS011;46848;51.980;5.918;2023-06-26T12:02:07;3.15;;;0.90;;
43519;SDS011;46848;51.980;5.918;2023-06-26T12:04:38;2.78;;;1.00;;
43519;SDS011;46848;51.980;5.918;2023-06-26T12:09:33;1.60;;;0.90;;
43519;SDS011;46848;51.980;5.918;2023-06-26T12:12:03;1.73;;;0.80;;
43519;SDS011;46848;51.980;5.918;2023-06-26T12:14:29;2.13;;;0.90;;
43519;SDS011;46848;51.980;5.918;2023-06-26T12:17:01;3.33;;;1.10;;
43519;SDS011;46848;51.980;5.918;2023-06-26T12:19:29;6.65;;;1.13;;
43519;SDS011;46848;51.980;5.918;2023-06-26T12:21:55;3.80;;;1.15;;
43519;SDS011;46848;51.980;5.918;2023-06-26T12:24:22;3.20;;;1.00;;
43519;SDS011;46848;51.980;5.918;2023-06-26T12:26:52;2.75;;;1.10;;
43519;SDS011;46848;51.980;5.918;2023-06-26T12:29:20;3.42;;;1.13;;
43519;SDS011;46848;51.980;5.918;2023-06-26T12:31:53;2.97;;;0.85;;
43519;SDS011;46848;51.980;5.918;2023-06-26T12:34:19;1.90;;;0.63;;
43519;SDS011;46848;51.980;5.918;2023-06-26T12:36:49;3.63;;;0.95;;
43519;SDS011;46848;51.980;5.918;2023-06-26T12:39:19;2.28;;;0.80;;
43519;SDS011;46848;51.980;5.918;2023-06-26T12:41:52;2.72;;;0.88;;
43519;SDS011;46848;51.980;5.918;2023-06-26T12:44:29;4.97;;;1.10;;
43519;SDS011;46848;51.980;5.918;2023-06-26T12:46:59;3.72;;;0.75;;
43519;SDS011;46848;51.980;5.918;2023-06-26T12:49:29;3.05;;;0.93;;
43519;SDS011;46848;51.980;5.918;2023-06-26T12:51:59;1.30;;;0.88;;
43519;SDS011;46848;51.980;5.918;2023-06-26T12:54:26;3.05;;;0.93;;
43519;SDS011;46848;51.980;5.918;2023-06-26T12:56:52;3.88;;;1.02;;
43519;SDS011;46848;51.980;5.918;2023-06-26T12:59:18;2.03;;;0.90;;
43519;SDS011;46848;51.980;5.918;2023-06-26T13:01:44;1.67;;;0.63;;
43519;SDS011;46848;51.980;5.918;2023-06-26T13:04:09;3.25;;;1.00;;
43519;SDS011;46848;51.980;5.918;2023-06-26T13:06:35;3.28;;;0.85;;
43519;SDS011;46848;51.980;5.918;2023-06-26T13:09:02;2.13;;;0.73;;
43519;SDS011;46848;51.980;5.918;2023-06-26T13:11:31;2.30;;;0.80;;
43519;SDS011;46848;51.980;5.918;2023-06-26T13:13:58;4.43;;;1.25;;
43519;SDS011;46848;51.980;5.918;2023-06-26T13:16:23;2.22;;;0.88;;
43519;SDS011;46848;51.980;5.918;2023-06-26T13:18:49;3.33;;;1.27;;
43519;SDS011;46848;51.980;5.918;2023-06-26T13:21:15;3.67;;;1.13;;
43519;SDS011;46848;51.980;5.918;2023-06-26T13:23:42;4.22;;;0.98;;
43519;SDS011;46848;51.980;5.918;2023-06-26T13:26:08;1.85;;;0.98;;
43519;SDS011;46848;51.980;5.918;2023-06-26T13:28:34;2.28;;;0.75;;
43519;SDS011;46848;51.980;5.918;2023-06-26T13:31:00;3.00;;;0.73;;
43519;SDS011;46848;51.980;5.918;2023-06-26T13:33:26;4.53;;;0.98;;
43519;SDS011;46848;51.980;5.918;2023-06-26T13:35:52;3.53;;;0.85;;
43519;SDS011;46848;51.980;5.918;2023-06-26T13:38:21;2.72;;;0.90;;
43519;SDS011;46848;51.980;5.918;2023-06-26T13:40:50;2.22;;;0.60;;
43519;SDS011;46848;51.980;5.918;2023-06-26T13:43:16;3.15;;;0.70;;
43519;SDS011;46848;51.980;5.918;2023-06-26T13:45:42;2.58;;;0.80;;
43519;SDS011;46848;51.980;5.918;2023-06-26T13:48:07;1.83;;;0.68;;
43519;SDS011;46848;51.980;5.918;2023-06-26T13:50:33;2.45;;;1.00;;
43519;SDS011;46848;51.980;5.918;2023-06-26T13:52:58;2.67;;;0.82;;
43519;SDS011;46848;51.980;5.918;2023-06-26T13:55:24;4.07;;;1.00;;
43519;SDS011;46848;51.980;5.918;2023-06-26T13:57:50;2.15;;;0.90;;
43519;SDS011;46848;51.980;5.918;2023-06-26T14:00:15;3.08;;;0.98;;
43519;SDS011;46848;51.980;5.918;2023-06-26T14:02:45;4.75;;;1.00;;
43519;SDS011;46848;51.980;5.918;2023-06-26T14:05:11;3.58;;;0.82;;
43519;SDS011;46848;51.980;5.918;2023-06-26T14:07:36;3.65;;;0.80;;
43519;SDS011;46848;51.980;5.918;2023-06-26T14:10:03;3.60;;;0.80;;
43519;SDS011;46848;51.980;5.918;2023-06-26T14:12:30;3.13;;;0.80;;
43519;SDS011;46848;51.980;5.918;2023-06-26T14:14:57;2.47;;;0.93;;
43519;SDS011;46848;51.980;5.918;2023-06-26T14:17:23;1.92;;;0.75;;
43519;SDS011;46848;51.980;5.918;2023-06-26T14:19:50;1.83;;;0.75;;
43519;SDS011;46848;51.980;5.918;2023-06-26T14:22:17;3.80;;;1.00;;
43519;SDS011;46848;51.980;5.918;2023-06-26T14:24:42;3.50;;;1.20;;
43519;SDS011;46848;51.980;5.918;2023-06-26T14:27:08;1.88;;;0.80;;
43519;SDS011;46848;51.980;5.918;2023-06-26T14:29:33;2.75;;;1.05;;
43519;SDS011;46848;51.980;5.918;2023-06-26T14:32:00;2.83;;;1.17;;
43519;SDS011;46848;51.980;5.918;2023-06-26T14:34:26;3.03;;;1.13;;
43519;SDS011;46848;51.980;5.918;2023-06-26T14:36:51;1.63;;;0.70;;
43519;SDS011;46848;51.980;5.918;2023-06-26T14:39:17;1.63;;;0.63;;
43519;SDS011;46848;51.980;5.918;2023-06-26T14:41:42;3.28;;;1.00;;
43519;SDS011;46848;51.980;5.918;2023-06-26T14:44:08;3.92;;;0.63;;
43519;SDS011;46848;51.980;5.918;2023-06-26T14:46:35;3.45;;;0.80;;
43519;SDS011;46848;51.980;5.918;2023-06-26T14:49:02;2.22;;;0.93;;
43519;SDS011;46848;51.980;5.918;2023-06-26T14:51:28;2.80;;;0.90;;
43519;SDS011;46848;51.980;5.918;2023-06-26T14:53:53;1.80;;;0.77;;
43519;SDS011;46848;51.980;5.918;2023-06-26T14:56:19;3.03;;;0.93;;